Los Cabos International Airport
MMSD : now visible

Airfield :











YOU CAN JOIN US ON...

 
LOGIN :

Register | Disclaimer

   EN    FR    IT 

 









Legend :    VFR   Marginal VFR   IFR   Intensive IFR   Very Intensive IFR
Visi :
Ceiling :
>= 8 km
>= 3000ft
5 to 8 km
1000 to 3000 ft
1500m to 5 km
500 to 1000 ft
800 to 1500m
200 to 500 ft
< 800m
< 200 ft
Symbols :   Thunderstorms  Fog  Heavy snow  Heavy precipitations  Wind > 20 kt






- Airport Elevation : 374 ft
- IATA code : SJD


MMSD - Los Cabos International

CURRENT METAR :
  • 072052Z 11005KT 10SM BKN140 OVC250 27/11 A3001 RMK SLP149 57016 906 8/037 BINOVC

EXPIRED METARs :
  • 071950Z 12005KT 10SM BKN140 OVC250 26/12 A3004 RMK 8/037 BINOVC
  • 071847Z 14005KT 10SM BKN140 OVC250 24/12 A3005 RMK 8/037 BINOVC

TAF TAF MMSD
Valid from the 07 at 18:00 until the 08 at 18:00 UTC


071657Z 0718/0818 32012KT P6SM BKN140 OVC250
BECMG 0802/0803 32006KT
FM081700 25015KT P6SM BKN140 OVC250



MET'MAP, your aeronautical weather chart ! - Copyright ORBIFLY December 2007 - Disclaimer

ORBIFLY MET'MAP TEAM :

Programming & Development : Alexandra Zaïnal
Concept & original design : Baudouin d'Aumeries
Assistance for programming : Marc-Olivier Méhu
Technical & hardware support : Manuel Goepfert

Contact : metmap@orbifly.com




SOURCES & CREDITS :

   NOAA       Earth
Advisory